sensor_id;sensor_type;location;lat;lon;timestamp;P1;durP1;ratioP1;P2;durP2;ratioP2
58888;SDS011;44671;49.326;8.430;2023-08-06T00:01:36;1.02;;;1.02;;
58888;SDS011;44671;49.326;8.430;2023-08-06T00:04:01;1.40;;;1.30;;
58888;SDS011;44671;49.326;8.430;2023-08-06T00:06:26;1.30;;;1.20;;
58888;SDS011;44671;49.326;8.430;2023-08-06T00:08:52;1.25;;;1.20;;
58888;SDS011;44671;49.326;8.430;2023-08-06T00:11:17;1.10;;;1.10;;
58888;SDS011;44671;49.326;8.430;2023-08-06T00:13:42;1.30;;;1.20;;
58888;SDS011;44671;49.326;8.430;2023-08-06T00:16:09;1.23;;;1.20;;
58888;SDS011;44671;49.326;8.430;2023-08-06T00:21:03;1.33;;;1.23;;
58888;SDS011;44671;49.326;8.430;2023-08-06T00:23:28;1.10;;;1.10;;
58888;SDS011;44671;49.326;8.430;2023-08-06T00:25:54;1.10;;;1.10;;
58888;SDS011;44671;49.326;8.430;2023-08-06T00:28:19;1.40;;;1.30;;
58888;SDS011;44671;49.326;8.430;2023-08-06T00:30:44;1.10;;;1.10;;
58888;SDS011;44671;49.326;8.430;2023-08-06T00:33:09;1.10;;;1.00;;
58888;SDS011;44671;49.326;8.430;2023-08-06T00:35:35;1.38;;;1.35;;
58888;SDS011;44671;49.326;8.430;2023-08-06T00:38:00;1.40;;;1.30;;
58888;SDS011;44671;49.326;8.430;2023-08-06T00:40:25;1.10;;;1.10;;
58888;SDS011;44671;49.326;8.430;2023-08-06T00:42:53;0.90;;;0.90;;
58888;SDS011;44671;49.326;8.430;2023-08-06T00:45:18;1.17;;;1.10;;
58888;SDS011;44671;49.326;8.430;2023-08-06T00:47:44;1.38;;;1.33;;
58888;SDS011;44671;49.326;8.430;2023-08-06T00:50:10;1.23;;;1.13;;
58888;SDS011;44671;49.326;8.430;2023-08-06T00:52:36;1.35;;;1.25;;
58888;SDS011;44671;49.326;8.430;2023-08-06T00:55:02;1.00;;;1.00;;
58888;SDS011;44671;49.326;8.430;2023-08-06T00:57:27;1.10;;;1.10;;
58888;SDS011;44671;49.326;8.430;2023-08-06T00:59:53;1.23;;;1.13;;
58888;SDS011;44671;49.326;8.430;2023-08-06T01:02:18;1.33;;;1.23;;
58888;SDS011;44671;49.326;8.430;2023-08-06T01:04:44;1.20;;;1.20;;
58888;SDS011;44671;49.326;8.430;2023-08-06T01:08:12;1.30;;;1.20;;
58888;SDS011;44671;49.326;8.430;2023-08-06T01:15:23;1.13;;;1.05;;
58888;SDS011;44671;49.326;8.430;2023-08-06T01:17:49;1.00;;;1.00;;
58888;SDS011;44671;49.326;8.430;2023-08-06T01:20:15;1.35;;;1.33;;
58888;SDS011;44671;49.326;8.430;2023-08-06T01:22:40;1.40;;;1.17;;
58888;SDS011;44671;49.326;8.430;2023-08-06T01:25:06;1.13;;;1.13;;
58888;SDS011;44671;49.326;8.430;2023-08-06T01:27:46;1.13;;;1.13;;
58888;SDS011;44671;49.326;8.430;2023-08-06T01:30:15;0.90;;;0.90;;
58888;SDS011;44671;49.326;8.430;2023-08-06T01:32:43;1.15;;;1.15;;
58888;SDS011;44671;49.326;8.430;2023-08-06T01:35:10;0.80;;;0.80;;
58888;SDS011;44671;49.326;8.430;2023-08-06T01:37:36;1.00;;;1.00;;
58888;SDS011;44671;49.326;8.430;2023-08-06T01:40:05;1.20;;;1.20;;
58888;SDS011;44671;49.326;8.430;2023-08-06T01:42:32;1.10;;;1.10;;
58888;SDS011;44671;49.326;8.430;2023-08-06T01:44:57;1.33;;;1.23;;
58888;SDS011;44671;49.326;8.430;2023-08-06T01:47:23;1.00;;;1.00;;
58888;SDS011;44671;49.326;8.430;2023-08-06T01:49:48;1.02;;;1.02;;
58888;SDS011;44671;49.326;8.430;2023-08-06T01:52:13;1.30;;;1.20;;
58888;SDS011;44671;49.326;8.430;2023-08-06T01:54:39;1.17;;;1.10;;
58888;SDS011;44671;49.326;8.430;2023-08-06T01:57:04;0.90;;;0.90;;
58888;SDS011;44671;49.326;8.430;2023-08-06T01:59:30;1.02;;;1.02;;
58888;SDS011;44671;49.326;8.430;2023-08-06T02:01:55;1.05;;;1.05;;
58888;SDS011;44671;49.326;8.430;2023-08-06T02:07:33;1.20;;;1.20;;
58888;SDS011;44671;49.326;8.430;2023-08-06T02:09:58;1.10;;;1.10;;
58888;SDS011;44671;49.326;8.430;2023-08-06T02:12:23;0.90;;;0.90;;
58888;SDS011;44671;49.326;8.430;2023-08-06T02:14:49;1.10;;;1.10;;
58888;SDS011;44671;49.326;8.430;2023-08-06T02:17:14;1.20;;;1.10;;
58888;SDS011;44671;49.326;8.430;2023-08-06T02:19:40;1.00;;;1.00;;
58888;SDS011;44671;49.326;8.430;2023-08-06T02:22:05;1.05;;;1.05;;
58888;SDS011;44671;49.326;8.430;2023-08-06T02:24:30;1.00;;;1.00;;
58888;SDS011;44671;49.326;8.430;2023-08-06T02:29:58;1.30;;;1.20;;
58888;SDS011;44671;49.326;8.430;2023-08-06T02:32:23;1.00;;;1.00;;
58888;SDS011;44671;49.326;8.430;2023-08-06T02:34:49;0.93;;;0.93;;
58888;SDS011;44671;49.326;8.430;2023-08-06T02:37:14;1.20;;;1.20;;
58888;SDS011;44671;49.326;8.430;2023-08-06T02:39:39;1.00;;;1.00;;
58888;SDS011;44671;49.326;8.430;2023-08-06T02:42:06;0.80;;;0.80;;
58888;SDS011;44671;49.326;8.430;2023-08-06T02:44:33;1.00;;;1.00;;
58888;SDS011;44671;49.326;8.430;2023-08-06T02:46:59;0.93;;;0.93;;
58888;SDS011;44671;49.326;8.430;2023-08-06T02:49:25;1.10;;;1.10;;
58888;SDS011;44671;49.326;8.430;2023-08-06T02:51:50;1.20;;;1.20;;
58888;SDS011;44671;49.326;8.430;2023-08-06T02:54:15;1.00;;;1.00;;
58888;SDS011;44671;49.326;8.430;2023-08-06T02:56:44;1.10;;;1.10;;
58888;SDS011;44671;49.326;8.430;2023-08-06T02:59:10;1.30;;;1.20;;
58888;SDS011;44671;49.326;8.430;2023-08-06T03:01:51;1.08;;;1.08;;
58888;SDS011;44671;49.326;8.430;2023-08-06T03:04:17;1.10;;;1.10;;
58888;SDS011;44671;49.326;8.430;2023-08-06T03:06:43;1.00;;;1.00;;
58888;SDS011;44671;49.326;8.430;2023-08-06T03:09:08;1.23;;;1.13;;
58888;SDS011;44671;49.326;8.430;2023-08-06T03:11:33;1.10;;;1.10;;
58888;SDS011;44671;49.326;8.430;2023-08-06T03:13:59;1.20;;;1.20;;
58888;SDS011;44671;49.326;8.430;2023-08-06T03:16:24;1.10;;;1.10;;
58888;SDS011;44671;49.326;8.430;2023-08-06T03:18:49;1.17;;;1.05;;
58888;SDS011;44671;49.326;8.430;2023-08-06T03:21:15;1.00;;;1.00;;
58888;SDS011;44671;49.326;8.430;2023-08-06T03:23:40;1.08;;;1.08;;
58888;SDS011;44671;49.326;8.430;2023-08-06T03:26:06;1.15;;;1.10;;
58888;SDS011;44671;49.326;8.430;2023-08-06T03:28:31;1.10;;;1.10;;
58888;SDS011;44671;49.326;8.430;2023-08-06T03:31:03;1.10;;;1.10;;
58888;SDS011;44671;49.326;8.430;2023-08-06T03:33:28;1.02;;;1.02;;
58888;SDS011;44671;49.326;8.430;2023-08-06T03:35:54;1.20;;;1.20;;
58888;SDS011;44671;49.326;8.430;2023-08-06T03:38:19;1.15;;;1.15;;
58888;SDS011;44671;49.326;8.430;2023-08-06T03:40:48;0.88;;;0.88;;
58888;SDS011;44671;49.326;8.430;2023-08-06T03:43:14;1.00;;;1.00;;
58888;SDS011;44671;49.326;8.430;2023-08-06T03:45:40;1.15;;;1.15;;
58888;SDS011;44671;49.326;8.430;2023-08-06T03:48:05;1.40;;;1.30;;
58888;SDS011;44671;49.326;8.430;2023-08-06T03:50:31;1.20;;;1.20;;
58888;SDS011;44671;49.326;8.430;2023-08-06T03:52:56;1.10;;;1.10;;
58888;SDS011;44671;49.326;8.430;2023-08-06T03:55:21;1.27;;;1.10;;
58888;SDS011;44671;49.326;8.430;2023-08-06T03:57:47;1.10;;;1.10;;
58888;SDS011;44671;49.326;8.430;2023-08-06T04:00:12;0.95;;;0.95;;
58888;SDS011;44671;49.326;8.430;2023-08-06T04:02:38;1.20;;;1.08;;
58888;SDS011;44671;49.326;8.430;2023-08-06T04:05:03;1.02;;;1.02;;
58888;SDS011;44671;49.326;8.430;2023-08-06T04:07:29;0.93;;;0.93;;
58888;SDS011;44671;49.326;8.430;2023-08-06T04:09:54;1.00;;;1.00;;
58888;SDS011;44671;49.326;8.430;2023-08-06T04:12:21;0.95;;;0.95;;
58888;SDS011;44671;49.326;8.430;2023-08-06T04:14:47;1.08;;;1.05;;
58888;SDS011;44671;49.326;8.430;2023-08-06T04:17:12;1.05;;;1.05;;
58888;SDS011;44671;49.326;8.430;2023-08-06T04:19:38;0.93;;;0.93;;
58888;SDS011;44671;49.326;8.430;2023-08-06T04:22:03;1.10;;;1.10;;
58888;SDS011;44671;49.326;8.430;2023-08-06T04:24:28;1.20;;;1.20;;
58888;SDS011;44671;49.326;8.430;2023-08-06T04:26:54;1.00;;;1.00;;
58888;SDS011;44671;49.326;8.430;2023-08-06T04:29:19;1.15;;;0.90;;
58888;SDS011;44671;49.326;8.430;2023-08-06T04:31:44;1.00;;;1.00;;
58888;SDS011;44671;49.326;8.430;2023-08-06T04:34:10;0.90;;;0.90;;
58888;SDS011;44671;49.326;8.430;2023-08-06T04:36:35;1.42;;;1.10;;
58888;SDS011;44671;49.326;8.430;2023-08-06T04:39:00;1.40;;;1.30;;
58888;SDS011;44671;49.326;8.430;2023-08-06T04:41:26;0.90;;;0.90;;
58888;SDS011;44671;49.326;8.430;2023-08-06T04:43:51;1.08;;;1.08;;
58888;SDS011;44671;49.326;8.430;2023-08-06T04:46:16;1.00;;;1.00;;
58888;SDS011;44671;49.326;8.430;2023-08-06T04:48:42;0.90;;;0.90;;
58888;SDS011;44671;49.326;8.430;2023-08-06T04:51:07;1.10;;;1.05;;
58888;SDS011;44671;49.326;8.430;2023-08-06T04:53:32;0.90;;;0.90;;
58888;SDS011;44671;49.326;8.430;2023-08-06T04:55:58;0.85;;;0.85;;
58888;SDS011;44671;49.326;8.430;2023-08-06T04:58:23;1.10;;;1.10;;
58888;SDS011;44671;49.326;8.430;2023-08-06T05:00:48;1.00;;;1.00;;
58888;SDS011;44671;49.326;8.430;2023-08-06T05:03:14;1.30;;;1.20;;
58888;SDS011;44671;49.326;8.430;2023-08-06T05:05:40;1.05;;;1.05;;
58888;SDS011;44671;49.326;8.430;2023-08-06T05:08:06;1.00;;;1.00;;
58888;SDS011;44671;49.326;8.430;2023-08-06T05:10:31;0.80;;;0.80;;
58888;SDS011;44671;49.326;8.430;2023-08-06T05:12:57;0.82;;;0.73;;
58888;SDS011;44671;49.326;8.430;2023-08-06T05:15:22;1.10;;;1.10;;
58888;SDS011;44671;49.326;8.430;2023-08-06T05:17:55;1.17;;;1.02;;
58888;SDS011;44671;49.326;8.430;2023-08-06T05:20:20;1.00;;;1.00;;
58888;SDS011;44671;49.326;8.430;2023-08-06T05:22:46;0.82;;;0.82;;
58888;SDS011;44671;49.326;8.430;2023-08-06T05:25:13;0.90;;;0.90;;
58888;SDS011;44671;49.326;8.430;2023-08-06T05:27:39;0.90;;;0.90;;
58888;SDS011;44671;49.326;8.430;2023-08-06T05:30:04;0.77;;;0.77;;
58888;SDS011;44671;49.326;8.430;2023-08-06T05:32:30;0.93;;;0.93;;
58888;SDS011;44671;49.326;8.430;2023-08-06T05:34:55;1.10;;;1.10;;
58888;SDS011;44671;49.326;8.430;2023-08-06T05:37:21;0.90;;;0.90;;
58888;SDS011;44671;49.326;8.430;2023-08-06T05:39:46;1.33;;;1.10;;
58888;SDS011;44671;49.326;8.430;2023-08-06T05:42:11;1.00;;;1.00;;
58888;SDS011;44671;49.326;8.430;2023-08-06T05:44:37;0.95;;;0.90;;
58888;SDS011;44671;49.326;8.430;2023-08-06T05:47:02;0.95;;;0.95;;
58888;SDS011;44671;49.326;8.430;2023-08-06T05:49:27;1.45;;;1.10;;
58888;SDS011;44671;49.326;8.430;2023-08-06T05:51:53;1.08;;;1.08;;
58888;SDS011;44671;49.326;8.430;2023-08-06T05:54:18;1.00;;;1.00;;
58888;SDS011;44671;49.326;8.430;2023-08-06T05:56:44;0.85;;;0.85;;
58888;SDS011;44671;49.326;8.430;2023-08-06T05:59:09;1.20;;;1.20;;
58888;SDS011;44671;49.326;8.430;2023-08-06T06:01:35;1.13;;;1.10;;
58888;SDS011;44671;49.326;8.430;2023-08-06T06:04:00;0.90;;;0.90;;
58888;SDS011;44671;49.326;8.430;2023-08-06T06:06:25;0.80;;;0.80;;
58888;SDS011;44671;49.326;8.430;2023-08-06T06:08:51;1.00;;;1.00;;
58888;SDS011;44671;49.326;8.430;2023-08-06T06:11:16;0.90;;;0.90;;
58888;SDS011;44671;49.326;8.430;2023-08-06T06:13:41;1.10;;;1.10;;
58888;SDS011;44671;49.326;8.430;2023-08-06T06:16:10;0.80;;;0.80;;
58888;SDS011;44671;49.326;8.430;2023-08-06T06:18:35;1.10;;;1.10;;
58888;SDS011;44671;49.326;8.430;2023-08-06T06:21:00;0.93;;;0.93;;
58888;SDS011;44671;49.326;8.430;2023-08-06T06:23:26;0.98;;;0.98;;
58888;SDS011;44671;49.326;8.430;2023-08-06T06:25:51;0.95;;;0.95;;
58888;SDS011;44671;49.326;8.430;2023-08-06T06:28:17;0.90;;;0.90;;
58888;SDS011;44671;49.326;8.430;2023-08-06T06:30:42;0.90;;;0.90;;
58888;SDS011;44671;49.326;8.430;2023-08-06T06:33:08;1.00;;;1.00;;
58888;SDS011;44671;49.326;8.430;2023-08-06T06:35:33;0.85;;;0.82;;
58888;SDS011;44671;49.326;8.430;2023-08-06T06:37:59;0.95;;;0.80;;
58888;SDS011;44671;49.326;8.430;2023-08-06T06:40:24;0.90;;;0.90;;
58888;SDS011;44671;49.326;8.430;2023-08-06T06:42:50;0.85;;;0.82;;
58888;SDS011;44671;49.326;8.430;2023-08-06T06:45:15;0.88;;;0.88;;
58888;SDS011;44671;49.326;8.430;2023-08-06T06:47:41;0.90;;;0.90;;
58888;SDS011;44671;49.326;8.430;2023-08-06T06:50:06;0.80;;;0.80;;
58888;SDS011;44671;49.326;8.430;2023-08-06T06:52:32;1.00;;;1.00;;
58888;SDS011;44671;49.326;8.430;2023-08-06T06:54:57;0.93;;;0.93;;
58888;SDS011;44671;49.326;8.430;2023-08-06T06:57:22;0.95;;;0.95;;
58888;SDS011;44671;49.326;8.430;2023-08-06T06:59:48;0.65;;;0.65;;
58888;SDS011;44671;49.326;8.430;2023-08-06T07:02:13;1.08;;;1.00;;
58888;SDS011;44671;49.326;8.430;2023-08-06T07:04:38;0.73;;;0.73;;
58888;SDS011;44671;49.326;8.430;2023-08-06T07:07:04;0.90;;;0.90;;
58888;SDS011;44671;49.326;8.430;2023-08-06T07:09:29;1.02;;;1.02;;
58888;SDS011;44671;49.326;8.430;2023-08-06T07:11:55;0.80;;;0.80;;
58888;SDS011;44671;49.326;8.430;2023-08-06T07:14:20;0.80;;;0.80;;
58888;SDS011;44671;49.326;8.430;2023-08-06T07:16:45;0.88;;;0.88;;
58888;SDS011;44671;49.326;8.430;2023-08-06T07:19:11;0.90;;;0.90;;
58888;SDS011;44671;49.326;8.430;2023-08-06T07:21:36;0.80;;;0.80;;
58888;SDS011;44671;49.326;8.430;2023-08-06T07:24:01;0.95;;;0.95;;
58888;SDS011;44671;49.326;8.430;2023-08-06T07:26:27;0.95;;;0.95;;
58888;SDS011;44671;49.326;8.430;2023-08-06T07:28:52;1.00;;;1.00;;
58888;SDS011;44671;49.326;8.430;2023-08-06T07:31:18;0.63;;;0.63;;
58888;SDS011;44671;49.326;8.430;2023-08-06T07:33:43;1.10;;;1.10;;
58888;SDS011;44671;49.326;8.430;2023-08-06T07:36:09;0.90;;;0.90;;
58888;SDS011;44671;49.326;8.430;2023-08-06T07:38:36;0.85;;;0.85;;
58888;SDS011;44671;49.326;8.430;2023-08-06T07:41:01;1.00;;;1.00;;
58888;SDS011;44671;49.326;8.430;2023-08-06T07:43:28;0.82;;;0.82;;
58888;SDS011;44671;49.326;8.430;2023-08-06T07:45:54;0.90;;;0.90;;
58888;SDS011;44671;49.326;8.430;2023-08-06T07:48:19;0.93;;;0.93;;
58888;SDS011;44671;49.326;8.430;2023-08-06T07:50:44;1.10;;;1.10;;
58888;SDS011;44671;49.326;8.430;2023-08-06T07:53:15;0.80;;;0.80;;
58888;SDS011;44671;49.326;8.430;2023-08-06T07:55:40;0.75;;;0.75;;
58888;SDS011;44671;49.326;8.430;2023-08-06T07:58:06;0.70;;;0.70;;
58888;SDS011;44671;49.326;8.430;2023-08-06T08:00:31;0.70;;;0.70;;
58888;SDS011;44671;49.326;8.430;2023-08-06T08:02:56;0.75;;;0.75;;
58888;SDS011;44671;49.326;8.430;2023-08-06T08:05:22;0.85;;;0.85;;
58888;SDS011;44671;49.326;8.430;2023-08-06T08:07:47;0.90;;;0.90;;
58888;SDS011;44671;49.326;8.430;2023-08-06T08:10:12;0.82;;;0.82;;
58888;SDS011;44671;49.326;8.430;2023-08-06T08:12:38;0.80;;;0.80;;
58888;SDS011;44671;49.326;8.430;2023-08-06T08:15:03;0.85;;;0.85;;
58888;SDS011;44671;49.326;8.430;2023-08-06T08:17:29;1.00;;;0.90;;
58888;SDS011;44671;49.326;8.430;2023-08-06T08:19:55;0.75;;;0.75;;
58888;SDS011;44671;49.326;8.430;2023-08-06T08:22:20;1.05;;;1.05;;
58888;SDS011;44671;49.326;8.430;2023-08-06T08:24:45;0.98;;;0.98;;
58888;SDS011;44671;49.326;8.430;2023-08-06T08:27:11;0.65;;;0.65;;
58888;SDS011;44671;49.326;8.430;2023-08-06T08:29:36;1.20;;;1.10;;
58888;SDS011;44671;49.326;8.430;2023-08-06T08:32:01;0.80;;;0.80;;
58888;SDS011;44671;49.326;8.430;2023-08-06T08:34:27;0.90;;;0.90;;
58888;SDS011;44671;49.326;8.430;2023-08-06T08:36:52;0.90;;;0.90;;
58888;SDS011;44671;49.326;8.430;2023-08-06T08:39:17;0.90;;;0.90;;
58888;SDS011;44671;49.326;8.430;2023-08-06T08:41:43;0.75;;;0.75;;
58888;SDS011;44671;49.326;8.430;2023-08-06T08:44:09;0.90;;;0.90;;
58888;SDS011;44671;49.326;8.430;2023-08-06T08:46:38;0.90;;;0.90;;
58888;SDS011;44671;49.326;8.430;2023-08-06T08:49:03;1.10;;;1.10;;
58888;SDS011;44671;49.326;8.430;2023-08-06T08:51:29;1.00;;;1.00;;
58888;SDS011;44671;49.326;8.430;2023-08-06T08:53:55;0.70;;;0.70;;
58888;SDS011;44671;49.326;8.430;2023-08-06T08:56:24;0.80;;;0.80;;
58888;SDS011;44671;49.326;8.430;2023-08-06T08:58:50;0.68;;;0.68;;
58888;SDS011;44671;49.326;8.430;2023-08-06T09:01:18;0.80;;;0.80;;
58888;SDS011;44671;49.326;8.430;2023-08-06T09:03:43;0.77;;;0.77;;
58888;SDS011;44671;49.326;8.430;2023-08-06T09:06:10;0.90;;;0.90;;
58888;SDS011;44671;49.326;8.430;2023-08-06T09:08:37;0.80;;;0.80;;
58888;SDS011;44671;49.326;8.430;2023-08-06T09:11:09;0.90;;;0.90;;
58888;SDS011;44671;49.326;8.430;2023-08-06T09:13:37;0.80;;;0.80;;
58888;SDS011;44671;49.326;8.430;2023-08-06T09:16:03;0.80;;;0.80;;
58888;SDS011;44671;49.326;8.430;2023-08-06T09:18:29;0.73;;;0.73;;
58888;SDS011;44671;49.326;8.430;2023-08-06T09:20:55;0.70;;;0.70;;
58888;SDS011;44671;49.326;8.430;2023-08-06T09:23:21;1.00;;;1.00;;
58888;SDS011;44671;49.326;8.430;2023-08-06T09:25:53;0.80;;;0.80;;
58888;SDS011;44671;49.326;8.430;2023-08-06T09:28:18;0.77;;;0.77;;
58888;SDS011;44671;49.326;8.430;2023-08-06T09:30:44;0.90;;;0.90;;
58888;SDS011;44671;49.326;8.430;2023-08-06T09:33:14;0.82;;;0.82;;
58888;SDS011;44671;49.326;8.430;2023-08-06T09:35:42;0.77;;;0.77;;
58888;SDS011;44671;49.326;8.430;2023-08-06T09:38:08;0.95;;;0.90;;
58888;SDS011;44671;49.326;8.430;2023-08-06T09:40:35;0.90;;;0.90;;
58888;SDS011;44671;49.326;8.430;2023-08-06T09:43:01;0.70;;;0.70;;
58888;SDS011;44671;49.326;8.430;2023-08-06T09:45:36;1.00;;;1.00;;
58888;SDS011;44671;49.326;8.430;2023-08-06T09:48:05;0.80;;;0.80;;
58888;SDS011;44671;49.326;8.430;2023-08-06T09:50:33;0.73;;;0.70;;
58888;SDS011;44671;49.326;8.430;2023-08-06T09:53:03;0.70;;;0.70;;
58888;SDS011;44671;49.326;8.430;2023-08-06T09:55:29;0.90;;;0.90;;
58888;SDS011;44671;49.326;8.430;2023-08-06T09:57:55;0.88;;;0.88;;
58888;SDS011;44671;49.326;8.430;2023-08-06T10:00:21;0.85;;;0.85;;
58888;SDS011;44671;49.326;8.430;2023-08-06T10:02:47;0.88;;;0.88;;
58888;SDS011;44671;49.326;8.430;2023-08-06T10:05:14;0.60;;;0.60;;
58888;SDS011;44671;49.326;8.430;2023-08-06T10:07:39;0.82;;;0.82;;
58888;SDS011;44671;49.326;8.430;2023-08-06T10:10:05;0.60;;;0.60;;
58888;SDS011;44671;49.326;8.430;2023-08-06T10:12:45;0.80;;;0.80;;
58888;SDS011;44671;49.326;8.430;2023-08-06T10:15:13;0.75;;;0.75;;
58888;SDS011;44671;49.326;8.430;2023-08-06T10:17:40;0.90;;;0.90;;
58888;SDS011;44671;49.326;8.430;2023-08-06T10:20:07;0.80;;;0.80;;
58888;SDS011;44671;49.326;8.430;2023-08-06T10:22:33;0.68;;;0.68;;
58888;SDS011;44671;49.326;8.430;2023-08-06T10:24:59;0.70;;;0.70;;
58888;SDS011;44671;49.326;8.430;2023-08-06T10:28:02;0.70;;;0.70;;
58888;SDS011;44671;49.326;8.430;2023-08-06T10:32:54;0.80;;;0.80;;
58888;SDS011;44671;49.326;8.430;2023-08-06T10:35:35;0.88;;;0.88;;
58888;SDS011;44671;49.326;8.430;2023-08-06T10:38:07;0.70;;;0.70;;
58888;SDS011;44671;49.326;8.430;2023-08-06T10:40:32;0.57;;;0.57;;
58888;SDS011;44671;49.326;8.430;2023-08-06T10:42:58;0.70;;;0.70;;
58888;SDS011;44671;49.326;8.430;2023-08-06T10:45:28;0.70;;;0.70;;
58888;SDS011;44671;49.326;8.430;2023-08-06T10:47:54;0.80;;;0.80;;
58888;SDS011;44671;49.326;8.430;2023-08-06T10:50:21;0.70;;;0.70;;
58888;SDS011;44671;49.326;8.430;2023-08-06T10:52:47;0.55;;;0.55;;
58888;SDS011;44671;49.326;8.430;2023-08-06T10:55:13;0.65;;;0.65;;
58888;SDS011;44671;49.326;8.430;2023-08-06T10:57:39;0.80;;;0.80;;
58888;SDS011;44671;49.326;8.430;2023-08-06T11:00:06;0.60;;;0.60;;
58888;SDS011;44671;49.326;8.430;2023-08-06T11:02:33;0.60;;;0.60;;
58888;SDS011;44671;49.326;8.430;2023-08-06T11:05:05;0.65;;;0.65;;
58888;SDS011;44671;49.326;8.430;2023-08-06T11:07:37;0.60;;;0.60;;
58888;SDS011;44671;49.326;8.430;2023-08-06T11:10:10;0.70;;;0.70;;
58888;SDS011;44671;49.326;8.430;2023-08-06T11:12:36;0.75;;;0.75;;
58888;SDS011;44671;49.326;8.430;2023-08-06T11:15:02;0.70;;;0.70;;
58888;SDS011;44671;49.326;8.430;2023-08-06T11:17:29;0.73;;;0.73;;
58888;SDS011;44671;49.326;8.430;2023-08-06T11:19:55;0.50;;;0.50;;
58888;SDS011;44671;49.326;8.430;2023-08-06T11:22:21;0.80;;;0.80;;
58888;SDS011;44671;49.326;8.430;2023-08-06T11:24:47;0.70;;;0.70;;
58888;SDS011;44671;49.326;8.430;2023-08-06T11:27:15;0.63;;;0.63;;
58888;SDS011;44671;49.326;8.430;2023-08-06T11:29:41;0.60;;;0.60;;
58888;SDS011;44671;49.326;8.430;2023-08-06T11:32:07;0.68;;;0.68;;
58888;SDS011;44671;49.326;8.430;2023-08-06T11:34:33;0.70;;;0.70;;
58888;SDS011;44671;49.326;8.430;2023-08-06T11:37:03;0.60;;;0.60;;
58888;SDS011;44671;49.326;8.430;2023-08-06T11:39:31;0.80;;;0.80;;
58888;SDS011;44671;49.326;8.430;2023-08-06T11:41:57;0.80;;;0.80;;
58888;SDS011;44671;49.326;8.430;2023-08-06T11:44:25;0.50;;;0.50;;
58888;SDS011;44671;49.326;8.430;2023-08-06T11:46:54;0.70;;;0.70;;
58888;SDS011;44671;49.326;8.430;2023-08-06T11:52:14;0.60;;;0.60;;
58888;SDS011;44671;49.326;8.430;2023-08-06T11:54:45;0.68;;;0.68;;
58888;SDS011;44671;49.326;8.430;2023-08-06T11:57:11;0.80;;;0.80;;
58888;SDS011;44671;49.326;8.430;2023-08-06T11:59:38;0.70;;;0.70;;
58888;SDS011;44671;49.326;8.430;2023-08-06T12:02:04;0.60;;;0.60;;
58888;SDS011;44671;49.326;8.430;2023-08-06T12:07:36;0.80;;;0.80;;
58888;SDS011;44671;49.326;8.430;2023-08-06T12:10:02;0.60;;;0.60;;
58888;SDS011;44671;49.326;8.430;2023-08-06T12:12:28;0.55;;;0.55;;
58888;SDS011;44671;49.326;8.430;2023-08-06T12:14:53;0.73;;;0.70;;
58888;SDS011;44671;49.326;8.430;2023-08-06T12:17:35;0.50;;;0.50;;
58888;SDS011;44671;49.326;8.430;2023-08-06T12:20:00;0.60;;;0.60;;
58888;SDS011;44671;49.326;8.430;2023-08-06T12:22:26;0.60;;;0.60;;
58888;SDS011;44671;49.326;8.430;2023-08-06T12:24:52;0.65;;;0.65;;
58888;SDS011;44671;49.326;8.430;2023-08-06T12:27:17;0.73;;;0.63;;
58888;SDS011;44671;49.326;8.430;2023-08-06T12:29:43;0.50;;;0.50;;
58888;SDS011;44671;49.326;8.430;2023-08-06T12:32:09;0.55;;;0.55;;
58888;SDS011;44671;49.326;8.430;2023-08-06T12:34:35;0.60;;;0.60;;
58888;SDS011;44671;49.326;8.430;2023-08-06T12:37:02;0.52;;;0.52;;
58888;SDS011;44671;49.326;8.430;2023-08-06T12:39:28;0.60;;;0.60;;
58888;SDS011;44671;49.326;8.430;2023-08-06T12:41:54;0.50;;;0.50;;
58888;SDS011;44671;49.326;8.430;2023-08-06T12:44:20;0.60;;;0.60;;
58888;SDS011;44671;49.326;8.430;2023-08-06T12:46:45;0.57;;;0.57;;
58888;SDS011;44671;49.326;8.430;2023-08-06T12:49:11;0.65;;;0.60;;
58888;SDS011;44671;49.326;8.430;2023-08-06T12:51:36;0.70;;;0.70;;
58888;SDS011;44671;49.326;8.430;2023-08-06T12:54:03;0.50;;;0.50;;
58888;SDS011;44671;49.326;8.430;2023-08-06T12:56:28;0.60;;;0.60;;
58888;SDS011;44671;49.326;8.430;2023-08-06T12:58:54;0.60;;;0.60;;
58888;SDS011;44671;49.326;8.430;2023-08-06T13:01:19;0.75;;;0.75;;
58888;SDS011;44671;49.326;8.430;2023-08-06T13:03:45;0.50;;;0.50;;
58888;SDS011;44671;49.326;8.430;2023-08-06T13:06:10;0.45;;;0.45;;
58888;SDS011;44671;49.326;8.430;2023-08-06T13:08:36;0.68;;;0.68;;
58888;SDS011;44671;49.326;8.430;2023-08-06T13:11:01;0.60;;;0.60;;
58888;SDS011;44671;49.326;8.430;2023-08-06T13:13:26;0.50;;;0.47;;
58888;SDS011;44671;49.326;8.430;2023-08-06T13:15:52;1.38;;;0.70;;
58888;SDS011;44671;49.326;8.430;2023-08-06T13:18:17;0.60;;;0.60;;
58888;SDS011;44671;49.326;8.430;2023-08-06T13:20:43;0.50;;;0.50;;
58888;SDS011;44671;49.326;8.430;2023-08-06T13:23:08;0.50;;;0.50;;
58888;SDS011;44671;49.326;8.430;2023-08-06T13:25:34;0.52;;;0.52;;
58888;SDS011;44671;49.326;8.430;2023-08-06T13:28:02;0.60;;;0.60;;
58888;SDS011;44671;49.326;8.430;2023-08-06T13:30:28;0.75;;;0.75;;
58888;SDS011;44671;49.326;8.430;2023-08-06T13:32:53;0.55;;;0.55;;
58888;SDS011;44671;49.326;8.430;2023-08-06T13:35:20;0.60;;;0.60;;
58888;SDS011;44671;49.326;8.430;2023-08-06T13:37:45;1.05;;;0.60;;
58888;SDS011;44671;49.326;8.430;2023-08-06T13:40:13;0.55;;;0.55;;
58888;SDS011;44671;49.326;8.430;2023-08-06T13:42:38;0.47;;;0.47;;
58888;SDS011;44671;49.326;8.430;2023-08-06T13:45:04;0.50;;;0.50;;
58888;SDS011;44671;49.326;8.430;2023-08-06T13:47:30;0.60;;;0.60;;
58888;SDS011;44671;49.326;8.430;2023-08-06T13:49:55;0.68;;;0.68;;
58888;SDS011;44671;49.326;8.430;2023-08-06T13:52:20;0.60;;;0.60;;
58888;SDS011;44671;49.326;8.430;2023-08-06T13:54:46;0.60;;;0.60;;
58888;SDS011;44671;49.326;8.430;2023-08-06T13:57:11;0.60;;;0.60;;
58888;SDS011;44671;49.326;8.430;2023-08-06T13:59:37;0.80;;;0.80;;
58888;SDS011;44671;49.326;8.430;2023-08-06T14:02:03;0.50;;;0.50;;
58888;SDS011;44671;49.326;8.430;2023-08-06T14:04:28;0.68;;;0.68;;
58888;SDS011;44671;49.326;8.430;2023-08-06T14:06:53;0.50;;;0.50;;
58888;SDS011;44671;49.326;8.430;2023-08-06T14:09:19;0.50;;;0.50;;
58888;SDS011;44671;49.326;8.430;2023-08-06T14:11:44;0.65;;;0.65;;
58888;SDS011;44671;49.326;8.430;2023-08-06T14:14:10;0.50;;;0.50;;
58888;SDS011;44671;49.326;8.430;2023-08-06T14:16:36;0.60;;;0.60;;
58888;SDS011;44671;49.326;8.430;2023-08-06T14:19:01;0.52;;;0.52;;
58888;SDS011;44671;49.326;8.430;2023-08-06T14:21:27;0.32;;;0.32;;
58888;SDS011;44671;49.326;8.430;2023-08-06T14:23:52;0.57;;;0.57;;
58888;SDS011;44671;49.326;8.430;2023-08-06T14:26:17;0.52;;;0.52;;
58888;SDS011;44671;49.326;8.430;2023-08-06T14:28:43;0.50;;;0.50;;
58888;SDS011;44671;49.326;8.430;2023-08-06T14:31:08;0.55;;;0.55;;
58888;SDS011;44671;49.326;8.430;2023-08-06T14:33:34;0.50;;;0.50;;
58888;SDS011;44671;49.326;8.430;2023-08-06T14:35:59;0.60;;;0.60;;
58888;SDS011;44671;49.326;8.430;2023-08-06T14:38:25;0.57;;;0.57;;
58888;SDS011;44671;49.326;8.430;2023-08-06T14:40:50;0.60;;;0.60;;
58888;SDS011;44671;49.326;8.430;2023-08-06T14:43:15;0.60;;;0.60;;
58888;SDS011;44671;49.326;8.430;2023-08-06T14:45:41;0.63;;;0.63;;
58888;SDS011;44671;49.326;8.430;2023-08-06T14:48:06;0.63;;;0.63;;
58888;SDS011;44671;49.326;8.430;2023-08-06T14:50:32;0.60;;;0.60;;
58888;SDS011;44671;49.326;8.430;2023-08-06T14:52:57;0.55;;;0.55;;
58888;SDS011;44671;49.326;8.430;2023-08-06T14:55:25;0.60;;;0.60;;
58888;SDS011;44671;49.326;8.430;2023-08-06T14:57:51;0.60;;;0.60;;
58888;SDS011;44671;49.326;8.430;2023-08-06T15:00:17;0.60;;;0.60;;
58888;SDS011;44671;49.326;8.430;2023-08-06T15:02:43;0.57;;;0.57;;
58888;SDS011;44671;49.326;8.430;2023-08-06T15:05:09;0.40;;;0.40;;